createdAt,value
2022-08-20T00:02:15.511Z,98644.35
2022-08-20T00:04:44.190Z,98649.86
2022-08-20T00:07:13.641Z,98652.81
2022-08-20T00:09:42.989Z,98651.07
2022-08-20T00:12:13.321Z,98647.14
2022-08-20T00:14:41.160Z,98641.73
2022-08-20T00:17:08.973Z,98644.11
2022-08-20T00:19:36.880Z,98638.05
2022-08-20T00:22:05.638Z,98641.67
2022-08-20T00:24:33.495Z,98645.04
2022-08-20T00:27:01.289Z,98649.69
2022-08-20T00:29:29.084Z,98653.65
2022-08-20T00:31:56.897Z,98657.45
2022-08-20T00:34:25.013Z,98658.80
2022-08-20T00:36:54.330Z,98657.52
2022-08-20T00:39:23.611Z,98655.05
2022-08-20T00:41:52.193Z,98660.27
2022-08-20T00:44:22.764Z,98660.20
2022-08-20T00:46:52.674Z,98661.70
2022-08-20T00:49:28.157Z,98665.75
2022-08-20T00:52:06.832Z,98666.15
2022-08-20T00:54:47.355Z,98673.71
2022-08-20T00:57:24.869Z,98676.91
2022-08-20T01:00:14.310Z,98676.03
2022-08-20T01:02:42.631Z,98681.82
2022-08-20T01:05:11.440Z,98683.40
2022-08-20T01:07:39.639Z,98679.63
2022-08-20T01:10:34.837Z,98679.30
2022-08-20T01:13:10.150Z,98681.23
2022-08-20T01:15:43.347Z,98678.85
2022-08-20T01:18:19.713Z,98678.54
2022-08-20T01:20:52.667Z,98682.45
2022-08-20T01:23:30.244Z,98679.54
2022-08-20T01:26:04.206Z,98683.92
2022-08-20T01:28:43.892Z,98679.89
2022-08-20T01:31:36.128Z,98681.41
2022-08-20T01:34:07.280Z,98689.73
2022-08-20T01:36:55.754Z,98683.25
2022-08-20T01:39:32.946Z,98679.70
2022-08-20T01:42:03.840Z,98680.59
2022-08-20T01:44:32.893Z,98674.58
2022-08-20T01:47:17.614Z,98676.23
2022-08-20T01:49:51.158Z,98674.16
2022-08-20T01:52:33.553Z,98673.78
2022-08-20T01:55:01.800Z,98669.59
2022-08-20T01:57:29.690Z,98666.64
2022-08-20T01:59:57.527Z,98664.98
2022-08-20T02:02:26.426Z,98655.65
2022-08-20T02:04:54.569Z,98646.09
2022-08-20T02:07:22.880Z,98650.80
2022-08-20T02:09:51.135Z,98645.02
2022-08-20T02:12:19.703Z,98644.73
2022-08-20T02:14:53.516Z,98643.27
2022-08-20T02:17:24.140Z,98639.73
2022-08-20T02:19:57.218Z,98648.32
2022-08-20T02:22:40.200Z,98653.20
2022-08-20T02:25:15.279Z,98646.71
2022-08-20T02:27:47.130Z,98644.68
2022-08-20T02:30:27.798Z,98635.39
2022-08-20T02:32:57.923Z,98633.95
2022-08-20T02:35:26.597Z,98623.89
2022-08-20T02:37:55.289Z,98622.75
2022-08-20T02:40:27.084Z,98622.52
2022-08-20T02:43:01.765Z,98621.94
2022-08-20T02:45:39.549Z,98619.77
2022-08-20T02:48:08.717Z,98610.84
2022-08-20T02:50:38.153Z,98607.24
2022-08-20T02:53:08.866Z,98609.21
2022-08-20T02:55:36.729Z,98609.09
2022-08-20T02:58:04.693Z,98616.96
2022-08-20T03:00:38.276Z,98620.34
2022-08-20T03:03:11.586Z,98611.42
2022-08-20T03:05:41.917Z,98609.67
2022-08-20T03:08:13.471Z,98607.39
2022-08-20T03:10:44.334Z,98610.68
2022-08-20T03:13:13.594Z,98611.88
2022-08-20T03:15:46.287Z,98610.94
2022-08-20T03:18:14.958Z,98608.25
2022-08-20T03:20:43.639Z,98608.86
2022-08-20T03:23:15.610Z,98606.13
2022-08-20T03:25:43.902Z,98607.02
2022-08-20T03:28:13.687Z,98607.61
2022-08-20T03:30:42.440Z,98607.29
2022-08-20T03:33:10.796Z,98605.20
2022-08-20T03:35:39.080Z,98609.64
2022-08-20T03:38:10.624Z,98616.92
2022-08-20T03:40:39.019Z,98613.20
2022-08-20T03:43:09.833Z,98611.19
2022-08-20T03:45:39.633Z,98607.02
2022-08-20T03:48:08.748Z,98602.98
2022-08-20T03:50:37.235Z,98602.40
2022-08-20T03:53:05.213Z,98599.35
2022-08-20T03:55:33.167Z,98605.61
2022-08-20T03:58:04.011Z,98606.42
2022-08-20T04:00:37.321Z,98607.71
2022-08-20T04:03:05.874Z,98612.13
2022-08-20T04:05:34.655Z,98614.07
2022-08-20T04:08:04.192Z,98612.45
2022-08-20T04:10:35.630Z,98611.31
2022-08-20T04:13:05.687Z,98614.91
2022-08-20T04:15:37.202Z,98616.54
2022-08-20T04:18:10.515Z,98622.89
2022-08-20T04:20:41.367Z,98622.60
2022-08-20T04:23:09.939Z,98619.09
2022-08-20T04:25:43.232Z,98618.02
2022-08-20T04:28:14.252Z,98626.86
2022-08-20T04:30:43.397Z,98634.37
2022-08-20T04:33:33.428Z,98634.78
2022-08-20T04:36:06.325Z,98633.04
2022-08-20T04:38:50.083Z,98634.96
2022-08-20T04:41:23.177Z,98637.66
2022-08-20T04:43:54.441Z,98638.14
2022-08-20T04:46:26.063Z,98628.89
2022-08-20T04:48:55.448Z,98626.76
2022-08-20T04:51:24.476Z,98631.60
2022-08-20T04:53:54.709Z,98633.65
2022-08-20T04:56:24.683Z,98641.20
2022-08-20T04:58:55.401Z,98646.09
2022-08-20T05:01:24.084Z,98651.10
2022-08-20T05:03:55.377Z,98658.50
2022-08-20T05:06:28.748Z,98659.39
2022-08-20T05:08:59.075Z,98659.77
2022-08-20T05:11:36.884Z,98663.52
2022-08-20T05:14:10.238Z,98675.98
2022-08-20T05:16:40.644Z,98678.48
2022-08-20T05:19:12.499Z,98683.52
2022-08-20T05:21:41.766Z,98684.09
2022-08-20T05:24:10.691Z,98682.95
2022-08-20T05:26:38.623Z,98680.39
2022-08-20T05:29:07.061Z,98685.24
2022-08-20T05:31:37.618Z,98687.98
2022-08-20T05:34:12.247Z,98693.09
2022-08-20T05:36:43.298Z,98699.59
2022-08-20T05:39:13.583Z,98697.54
2022-08-20T05:41:41.875Z,98699.02
2022-08-20T05:44:13.797Z,98701.76
2022-08-20T05:46:44.182Z,98690.70
2022-08-20T05:49:15.730Z,98689.77
2022-08-20T05:51:44.116Z,98685.88
2022-08-20T05:54:14.950Z,98681.22
2022-08-20T05:56:42.774Z,98669.73
2022-08-20T05:59:12.456Z,98674.73
2022-08-20T06:01:41.403Z,98674.02
2022-08-20T06:04:31.952Z,98673.39
2022-08-20T06:07:06.381Z,98670.33
2022-08-20T06:09:36.488Z,98674.89
2022-08-20T06:12:06.691Z,98673.03
2022-08-20T06:14:34.581Z,98683.33
2022-08-20T06:17:07.854Z,98677.94
2022-08-20T06:19:37.674Z,98683.99
2022-08-20T06:22:18.393Z,98687.02
2022-08-20T06:24:51.440Z,98688.23
2022-08-20T06:27:20.398Z,98688.52
2022-08-20T06:29:51.557Z,98685.27
2022-08-20T06:32:28.815Z,98683.98
2022-08-20T06:35:09.374Z,98687.73
2022-08-20T06:37:40.387Z,98687.59
2022-08-20T06:40:20.015Z,98690.73
2022-08-20T06:42:48.952Z,98692.53
2022-08-20T06:45:20.676Z,98688.39
2022-08-20T06:47:51.782Z,98678.48
2022-08-20T06:50:27.579Z,98676.25
2022-08-20T06:52:59.944Z,98676.63
2022-08-20T06:55:28.376Z,98679.33
2022-08-20T06:58:01.455Z,98683.30
2022-08-20T07:00:33.187Z,98680.74
2022-08-20T07:03:02.628Z,98687.69
2022-08-20T07:05:34.746Z,98690.48
2022-08-20T07:08:03.630Z,98689.36
2022-08-20T07:10:31.906Z,98691.13
2022-08-20T07:13:00.574Z,98695.54
2022-08-20T07:15:30.597Z,98696.44
2022-08-20T07:18:02.483Z,98694.52
2022-08-20T07:20:32.517Z,98693.65
2022-08-20T07:23:01.547Z,98697.79
2022-08-20T07:25:31.994Z,98698.84
2022-08-20T07:28:12.733Z,98697.06
2022-08-20T07:31:13.272Z,98694.72
2022-08-20T07:33:44.392Z,98694.52
2022-08-20T07:36:13.652Z,98685.64
2022-08-20T07:38:43.427Z,98685.48
2022-08-20T07:41:13.628Z,98687.95
2022-08-20T07:43:48.736Z,98697.98
2022-08-20T07:46:21.614Z,98707.08
2022-08-20T07:48:50.599Z,98698.00
2022-08-20T07:51:22.570Z,98688.09
2022-08-20T07:53:52.275Z,98688.27
2022-08-20T07:56:24.275Z,98691.77
2022-08-20T07:58:55.698Z,98696.39
2022-08-20T08:01:30.560Z,98690.39
2022-08-20T08:04:01.779Z,98691.27
2022-08-20T08:06:31.787Z,98687.66
2022-08-20T08:09:03.633Z,98680.85
2022-08-20T08:11:34.986Z,98679.22
2022-08-20T08:14:06.455Z,98683.80
2022-08-20T08:16:38.162Z,98689.31
2022-08-20T08:19:12.054Z,98691.27
2022-08-20T08:21:41.439Z,98695.38
2022-08-20T08:24:09.752Z,98693.23
2022-08-20T08:26:37.824Z,98690.37
2022-08-20T08:29:07.799Z,98694.77
2022-08-20T08:31:35.898Z,98690.70
2022-08-20T08:34:04.433Z,98695.89
2022-08-20T08:36:32.341Z,98696.81
2022-08-20T08:39:00.228Z,98695.57
2022-08-20T08:41:48.542Z,98690.17
2022-08-20T08:44:23.773Z,98689.39
2022-08-20T08:46:57.756Z,98691.85
2022-08-20T08:49:37.476Z,98694.88
2022-08-20T08:52:12.235Z,98696.16
2022-08-20T08:54:46.887Z,98694.20
2022-08-20T08:57:15.809Z,98696.18
2022-08-20T09:00:03.399Z,98692.02
2022-08-20T09:02:36.400Z,98690.88
2022-08-20T09:05:15.105Z,98685.49
2022-08-20T09:07:47.509Z,98683.27
2022-08-20T09:10:16.267Z,98679.98
2022-08-20T09:12:52.107Z,98685.26
2022-08-20T09:15:21.465Z,98685.48
2022-08-20T09:17:49.543Z,98687.93
2022-08-20T09:20:18.441Z,98691.61
2022-08-20T09:22:46.486Z,98689.88
2022-08-20T09:25:18.039Z,98691.55
2022-08-20T09:27:46.282Z,98696.67
2022-08-20T09:30:17.023Z,98691.34
2022-08-20T09:32:46.479Z,98690.68
2022-08-20T09:35:14.939Z,98695.40
2022-08-20T09:37:43.064Z,98694.52
2022-08-20T09:40:13.718Z,98690.76
2022-08-20T09:42:44.227Z,98690.98
2022-08-20T09:45:13.767Z,98693.66
2022-08-20T09:47:55.099Z,98695.63
2022-08-20T09:50:27.364Z,98691.50
2022-08-20T09:52:57.838Z,98694.30
2022-08-20T09:55:42.508Z,98696.77
2022-08-20T09:58:24.326Z,98700.70
2022-08-20T10:00:52.678Z,98701.92
2022-08-20T10:03:20.757Z,98701.05
2022-08-20T10:06:16.973Z,98696.88
2022-08-20T10:08:49.925Z,98693.43
2022-08-20T10:11:18.558Z,98688.44
2022-08-20T10:13:47.601Z,98687.08
2022-08-20T10:16:15.459Z,98684.91
2022-08-20T10:18:43.354Z,98675.73
2022-08-20T10:21:17.762Z,98669.94
2022-08-20T10:23:50.352Z,98669.27
2022-08-20T10:26:18.293Z,98671.84
2022-08-20T10:28:49.999Z,98670.14
2022-08-20T10:31:18.261Z,98673.48
2022-08-20T10:33:46.121Z,98677.48
2022-08-20T10:36:18.472Z,98678.61
2022-08-20T10:38:46.602Z,98681.73
2022-08-20T10:41:16.091Z,98686.23
2022-08-20T10:43:44.240Z,98684.64
2022-08-20T10:46:13.774Z,98687.92
2022-08-20T10:48:41.684Z,98689.71
2022-08-20T10:51:09.566Z,98691.44
2022-08-20T10:53:37.510Z,98693.16
2022-08-20T10:56:05.504Z,98688.10
2022-08-20T10:58:39.405Z,98689.29
2022-08-20T11:01:08.560Z,98684.19
2022-08-20T11:03:36.425Z,98686.02
2022-08-20T11:06:05.519Z,98685.92
2022-08-20T11:08:36.003Z,98684.13
2022-08-20T11:11:05.410Z,98682.96
2022-08-20T11:13:35.089Z,98674.63
2022-08-20T11:16:05.341Z,98668.85
2022-08-20T11:18:33.496Z,98668.94
2022-08-20T11:21:02.253Z,98669.11
2022-08-20T11:23:30.508Z,98670.11
2022-08-20T11:25:59.228Z,98666.10
2022-08-20T11:28:31.573Z,98663.55
2022-08-20T11:31:01.772Z,98657.24
2022-08-20T11:33:29.691Z,98656.32
2022-08-20T11:35:57.921Z,98659.66
2022-08-20T11:38:26.255Z,98656.45
2022-08-20T11:40:54.146Z,98655.39
2022-08-20T11:43:21.994Z,98657.38
2022-08-20T11:45:52.962Z,98656.34
2022-08-20T11:48:21.533Z,98653.55
2022-08-20T11:50:51.255Z,98649.02
2022-08-20T11:53:19.585Z,98643.84
2022-08-20T11:55:48.066Z,98641.71
2022-08-20T11:58:16.150Z,98636.86
2022-08-20T12:00:44.308Z,98638.19
2022-08-20T12:03:12.627Z,98635.98
2022-08-20T12:05:42.909Z,98632.80
2022-08-20T12:08:26.684Z,98627.66
2022-08-20T12:10:58.979Z,98624.34
2022-08-20T12:13:30.638Z,98624.42
2022-08-20T12:16:19.323Z,98625.19
2022-08-20T12:18:47.859Z,98634.45
2022-08-20T12:21:16.458Z,98642.77
2022-08-20T12:23:45.145Z,98645.95
2022-08-20T12:26:14.421Z,98643.13
2022-08-20T12:28:42.831Z,98637.64
2022-08-20T12:31:10.650Z,98635.58
2022-08-20T12:33:38.778Z,98640.70
2022-08-20T12:36:06.825Z,98640.39
2022-08-20T12:38:34.618Z,98639.80
2022-08-20T12:41:02.736Z,98636.55
2022-08-20T12:43:30.593Z,98628.60
2022-08-20T12:45:58.483Z,98627.55
2022-08-20T12:48:26.362Z,98628.05
2022-08-20T12:50:54.272Z,98622.92
2022-08-20T12:53:22.982Z,98623.71
2022-08-20T12:55:50.931Z,98618.70
2022-08-20T12:58:19.498Z,98617.20
2022-08-20T13:00:50.784Z,98608.07
2022-08-20T13:03:20.303Z,98609.80
2022-08-20T13:05:49.982Z,98602.02
2022-08-20T13:08:19.624Z,98601.86
2022-08-20T13:10:47.862Z,98606.04
2022-08-20T13:13:20.400Z,98604.11
2022-08-20T13:15:51.128Z,98599.27
2022-08-20T13:18:20.514Z,98598.47
2022-08-20T13:20:48.814Z,98598.55
2022-08-20T13:23:17.282Z,98608.62
2022-08-20T13:25:45.197Z,98610.68
2022-08-20T13:28:13.076Z,98612.57
2022-08-20T13:30:41.707Z,98613.63
2022-08-20T13:33:09.759Z,98617.09
2022-08-20T13:35:37.740Z,98621.73
2022-08-20T13:38:05.717Z,98620.55
2022-08-20T13:40:33.618Z,98618.71
2022-08-20T13:43:06.440Z,98622.87
2022-08-20T13:45:37.031Z,98634.13
2022-08-20T13:48:06.875Z,98645.85
2022-08-20T13:50:38.037Z,98646.71
2022-08-20T13:53:07.182Z,98641.89
2022-08-20T13:55:35.511Z,98644.27
2022-08-20T13:58:08.114Z,98647.08
2022-08-20T14:00:38.248Z,98648.16
2022-08-20T14:03:07.529Z,98657.20
2022-08-20T14:05:36.720Z,98660.70
2022-08-20T14:08:20.404Z,98668.21
2022-08-20T14:10:51.616Z,98678.12
2022-08-20T14:13:22.941Z,98686.42
2022-08-20T14:15:51.323Z,98697.79
2022-08-20T14:18:20.021Z,98715.98
2022-08-20T14:20:47.832Z,98725.50
2022-08-20T14:23:18.831Z,98727.52
2022-08-20T14:25:49.570Z,98717.34
2022-08-20T14:28:24.199Z,98703.80
2022-08-20T14:30:53.930Z,98693.40
2022-08-20T14:33:23.881Z,98699.69
2022-08-20T14:35:52.944Z,98697.30
2022-08-20T14:38:20.806Z,98710.61
2022-08-20T14:40:50.694Z,98715.43
2022-08-20T14:43:19.637Z,98714.82
2022-08-20T14:45:47.695Z,98715.06
2022-08-20T14:48:16.772Z,98709.67
2022-08-20T14:50:46.093Z,98717.87
2022-08-20T14:53:13.966Z,98715.98
2022-08-20T14:55:41.845Z,98711.25
2022-08-20T14:58:13.338Z,98728.02
2022-08-20T15:00:42.942Z,98719.86
2022-08-20T15:03:13.631Z,98707.41
2022-08-20T15:05:41.731Z,98716.61
2022-08-20T15:08:11.160Z,98712.20
2022-08-20T15:10:40.878Z,98719.02
2022-08-20T15:13:09.862Z,98730.45
2022-08-20T15:15:37.980Z,98737.95
2022-08-20T15:18:07.324Z,98742.24
2022-08-20T15:20:36.733Z,98750.64
2022-08-20T15:23:06.296Z,98743.48
2022-08-20T15:25:37.707Z,98735.73
2022-08-20T15:28:09.022Z,98726.52
2022-08-20T15:30:41.183Z,98733.55
2022-08-20T15:33:10.248Z,98742.93
2022-08-20T15:35:39.117Z,98753.05
2022-08-20T15:38:07.316Z,98754.66
2022-08-20T15:40:35.179Z,98763.19
2022-08-20T15:43:05.430Z,98761.70
2022-08-20T15:45:34.814Z,98766.23
2022-08-20T15:48:16.727Z,98769.56
2022-08-20T15:50:47.705Z,98773.64
2022-08-20T15:53:32.072Z,98782.83
2022-08-20T15:56:11.915Z,98782.02
2022-08-20T15:58:59.486Z,98786.65
2022-08-20T16:01:38.536Z,98778.23
2022-08-20T16:04:24.141Z,98783.53
2022-08-20T16:06:57.757Z,98773.02
2022-08-20T16:09:52.751Z,98774.50
2022-08-20T16:12:32.110Z,98771.45
2022-08-20T16:15:07.967Z,98775.52
2022-08-20T16:18:13.560Z,98773.35
2022-08-20T16:20:48.947Z,98778.02
2022-08-20T16:23:19.806Z,98781.39
2022-08-20T16:25:59.157Z,98785.27
2022-08-20T16:28:32.642Z,98782.86
2022-08-20T16:31:04.131Z,98780.88
2022-08-20T16:33:45.626Z,98771.52
2022-08-20T16:37:03.056Z,98769.19
2022-08-20T16:39:58.397Z,98772.23
2022-08-20T16:42:33.142Z,98776.13
2022-08-20T16:45:03.342Z,98781.64
2022-08-20T16:47:35.557Z,98781.94
2022-08-20T16:50:11.325Z,98788.96
2022-08-20T16:52:43.412Z,98782.76
2022-08-20T16:55:13.373Z,98787.52
2022-08-20T16:57:41.393Z,98788.05
2022-08-20T17:00:20.093Z,98785.27
2022-08-20T17:03:02.946Z,98791.61
2022-08-20T17:05:54.519Z,98802.27
2022-08-20T17:08:35.102Z,98805.15
2022-08-20T17:11:17.240Z,98810.79
2022-08-20T17:13:48.017Z,98815.95
2022-08-20T17:16:20.145Z,98818.10
2022-08-20T17:18:51.185Z,98819.64
2022-08-20T17:21:33.133Z,98822.18
2022-08-20T17:24:28.104Z,98815.52
2022-08-20T17:27:00.103Z,98823.73
2022-08-20T17:29:31.852Z,98820.86
2022-08-20T17:32:17.194Z,98834.94
2022-08-20T17:34:51.028Z,98839.95
2022-08-20T17:37:29.096Z,98849.58
2022-08-20T17:40:11.326Z,98854.64
2022-08-20T17:42:59.066Z,98858.02
2022-08-20T17:45:35.647Z,98866.30
2022-08-20T17:48:07.142Z,98866.84
2022-08-20T17:50:42.951Z,98865.22
2022-08-20T17:53:23.127Z,98858.25
2022-08-20T17:55:58.697Z,98852.14
2022-08-20T17:58:39.911Z,98853.68
2022-08-20T18:01:23.422Z,98860.19
2022-08-20T18:03:53.593Z,98863.73
2022-08-20T18:06:37.283Z,98869.66
2022-08-20T18:09:22.719Z,98866.79
2022-08-20T18:12:02.978Z,98862.45
2022-08-20T18:15:08.162Z,98867.90
2022-08-20T18:17:59.953Z,98865.97
2022-08-20T18:21:07.484Z,98852.45
2022-08-20T18:23:43.264Z,98834.27
2022-08-20T18:26:28.602Z,98830.86
2022-08-20T18:29:04.008Z,98838.65
2022-08-20T18:31:40.802Z,98841.48
2022-08-20T18:34:29.644Z,98845.20
2022-08-20T18:37:03.288Z,98847.05
2022-08-20T18:39:33.021Z,98846.95
2022-08-20T18:42:11.142Z,98852.80
2022-08-20T18:44:43.947Z,98855.02
2022-08-20T18:47:21.393Z,98861.38
2022-08-20T18:50:39.184Z,98856.63
2022-08-20T18:53:13.548Z,98851.20
2022-08-20T18:55:45.347Z,98854.15
2022-08-20T18:58:30.812Z,98856.70
2022-08-20T19:01:02.259Z,98867.82
2022-08-20T19:03:36.056Z,98866.30
2022-08-20T19:06:28.456Z,98868.83
2022-08-20T19:09:36.011Z,98867.04
2022-08-20T19:12:20.813Z,98873.77
2022-08-20T19:14:54.470Z,98874.22
2022-08-20T19:17:33.146Z,98867.30
2022-08-20T19:20:04.018Z,98874.34
2022-08-20T19:22:33.790Z,98869.24
2022-08-20T19:25:01.690Z,98865.95
2022-08-20T19:27:30.661Z,98864.04
2022-08-20T19:29:58.601Z,98864.29
2022-08-20T19:32:29.888Z,98862.47
2022-08-20T19:35:02.385Z,98859.93
2022-08-20T19:37:50.409Z,98856.80
2022-08-20T19:40:24.421Z,98855.29
2022-08-20T19:42:59.782Z,98847.77
2022-08-20T19:45:36.237Z,98847.92
2022-08-20T19:48:29.196Z,98847.87
2022-08-20T19:51:29.462Z,98846.05
2022-08-20T19:53:57.841Z,98845.36
2022-08-20T19:56:28.094Z,98843.52
2022-08-20T19:59:07.359Z,98845.75
2022-08-20T20:01:36.039Z,98850.54
2022-08-20T20:04:16.578Z,98851.77
2022-08-20T20:06:47.842Z,98849.45
2022-08-20T20:09:27.818Z,98849.80
2022-08-20T20:11:58.953Z,98849.61
2022-08-20T20:14:30.917Z,98845.89
2022-08-20T20:16:59.996Z,98848.79
2022-08-20T20:19:28.699Z,98846.01
2022-08-20T20:22:19.532Z,98844.62
2022-08-20T20:24:58.220Z,98846.31
2022-08-20T20:27:28.972Z,98850.52
2022-08-20T20:30:02.952Z,98843.59
2022-08-20T20:32:33.697Z,98846.30
2022-08-20T20:35:06.060Z,98843.34
2022-08-20T20:37:49.307Z,98844.80
2022-08-20T20:40:27.887Z,98845.36
2022-08-20T20:43:05.845Z,98845.87
2022-08-20T20:45:45.817Z,98850.33
2022-08-20T20:48:24.486Z,98852.65
2022-08-20T20:50:56.273Z,98859.00
2022-08-20T20:53:51.000Z,98856.46
2022-08-20T20:56:26.307Z,98856.41
2022-08-20T20:58:56.700Z,98856.10
2022-08-20T21:01:34.538Z,98853.05
2022-08-20T21:04:13.860Z,98846.57
2022-08-20T21:06:41.618Z,98850.41
2022-08-20T21:09:09.543Z,98854.96
2022-08-20T21:11:38.414Z,98856.80
2022-08-20T21:14:06.448Z,98854.77
2022-08-20T21:16:37.166Z,98855.96
2022-08-20T21:19:06.935Z,98854.11
2022-08-20T21:21:36.218Z,98849.39
2022-08-20T21:24:05.662Z,98854.98
2022-08-20T21:26:33.810Z,98855.61
2022-08-20T21:29:01.868Z,98855.42
2022-08-20T21:31:34.514Z,98847.84
2022-08-20T21:34:02.854Z,98836.27
2022-08-20T21:36:30.663Z,98832.08
2022-08-20T21:38:58.570Z,98835.00
2022-08-20T21:41:29.919Z,98839.63
2022-08-20T21:44:01.370Z,98839.66
2022-08-20T21:46:29.255Z,98844.42
2022-08-20T21:48:57.063Z,98835.35
2022-08-20T21:51:24.932Z,98831.52
2022-08-20T21:53:52.848Z,98826.98
2022-08-20T21:56:23.484Z,98829.27
2022-08-20T21:58:51.962Z,98824.38
2022-08-20T22:01:23.285Z,98827.45
2022-08-20T22:03:51.729Z,98828.16
2022-08-20T22:06:20.204Z,98820.10
2022-08-20T22:08:48.445Z,98833.91
2022-08-20T22:11:16.557Z,98832.23
2022-08-20T22:13:44.651Z,98842.61
2022-08-20T22:16:18.492Z,98845.09
2022-08-20T22:18:47.924Z,98841.68
2022-08-20T22:21:29.815Z,98848.34
2022-08-20T22:24:04.142Z,98856.15
2022-08-20T22:26:35.504Z,98853.27
2022-08-20T22:29:04.981Z,98855.27
2022-08-20T22:31:35.464Z,98849.02
2022-08-20T22:34:03.967Z,98843.09
2022-08-20T22:36:33.061Z,98838.90
2022-08-20T22:39:01.113Z,98845.27
2022-08-20T22:41:29.180Z,98851.33
2022-08-20T22:43:57.495Z,98855.48
2022-08-20T22:46:33.565Z,98851.54
2022-08-20T22:49:01.477Z,98845.70
2022-08-20T22:51:32.632Z,98848.92
2022-08-20T22:54:03.784Z,98847.95
2022-08-20T22:56:31.677Z,98845.77
2022-08-20T22:59:00.280Z,98842.05
2022-08-20T23:01:29.318Z,98837.17
2022-08-20T23:04:23.205Z,98837.77
2022-08-20T23:06:51.854Z,98841.95
2022-08-20T23:09:21.709Z,98828.09
2022-08-20T23:11:49.886Z,98833.52
2022-08-20T23:14:18.071Z,98838.94
2022-08-20T23:16:49.183Z,98846.56
2022-08-20T23:19:21.719Z,98845.55
2022-08-20T23:21:51.273Z,98849.52
2022-08-20T23:24:20.310Z,98835.35
2022-08-20T23:26:52.425Z,98832.67
2022-08-20T23:29:25.727Z,98830.70
2022-08-20T23:31:56.275Z,98822.59
2022-08-20T23:34:26.575Z,98821.02
2022-08-20T23:36:56.488Z,98810.80
2022-08-20T23:39:26.037Z,98819.55
2022-08-20T23:41:54.000Z,98814.88
2022-08-20T23:44:26.310Z,98820.92
2022-08-20T23:46:57.187Z,98818.48
2022-08-20T23:49:25.891Z,98821.98
2022-08-20T23:51:53.915Z,98821.73
2022-08-20T23:54:21.748Z,98820.66
2022-08-20T23:56:49.766Z,98820.04
2022-08-20T23:59:17.782Z,98812.80
